createdAt,value
2022-11-10T00:00:19.793Z,95126.63
2022-11-10T00:03:12.360Z,95138.06
2022-11-10T00:05:58.772Z,95123.41
2022-11-10T00:08:44.361Z,95127.88
2022-11-10T00:11:30.745Z,95126.84
2022-11-10T00:14:35.310Z,95122.34
2022-11-10T00:17:21.388Z,95122.56
2022-11-10T00:20:08.565Z,95129.75
2022-11-10T00:22:56.664Z,95137.72
2022-11-10T00:25:57.510Z,95134.03
2022-11-10T00:28:56.543Z,95133.44
2022-11-10T00:31:43.703Z,95133.44
2022-11-10T00:34:29.765Z,95126.69
2022-11-10T00:37:15.442Z,95138.44
2022-11-10T00:40:01.502Z,95136.09
2022-11-10T00:42:47.603Z,95132.66
2022-11-10T00:45:51.551Z,95132.78
2022-11-10T00:48:40.367Z,95146.16
2022-11-10T00:51:29.608Z,95142.13
2022-11-10T00:54:15.209Z,95150.44
2022-11-10T00:57:00.818Z,95166.38
2022-11-10T00:59:46.398Z,95165.34
2022-11-10T01:02:32.412Z,95159.44
2022-11-10T01:05:18.204Z,95156.78
2022-11-10T01:08:05.121Z,95167.41
2022-11-10T01:11:10.126Z,95161.31
2022-11-10T01:14:04.428Z,95161.56
2022-11-10T01:17:06.294Z,95165.84
2022-11-10T01:20:10.612Z,95170.31
2022-11-10T01:23:26.781Z,95178.53
2022-11-10T09:20:46.186Z,95749.63
2022-11-10T09:23:51.817Z,95762.31
2022-11-10T09:31:12.957Z,95783.88
2022-11-10T09:34:21.169Z,95781.44
2022-11-10T09:37:28.928Z,95791.28
2022-11-10T09:40:54.088Z,95792.31
2022-11-10T09:43:45.347Z,95793.56
2022-11-10T09:46:59.176Z,95803.13
2022-11-10T09:50:03.065Z,95803.13
2022-11-10T09:53:00.112Z,95801.38
2022-11-10T09:56:04.141Z,95815.63
2022-11-10T09:58:59.737Z,95817.25
2022-11-10T10:01:53.633Z,95824.41
2022-11-10T10:05:18.073Z,95828.91
2022-11-10T10:08:26.811Z,95826.69
2022-11-10T10:11:51.163Z,95837.31
2022-11-10T10:14:59.829Z,95841.81
2022-11-10T10:18:22.471Z,95849.00
2022-11-10T10:21:26.056Z,95855.13
2022-11-10T10:24:22.316Z,95851.44
2022-11-10T10:27:23.311Z,95852.47
2022-11-10T10:30:33.629Z,95847.13
2022-11-10T10:33:33.559Z,95838.19
2022-11-10T10:36:50.571Z,95851.44
2022-11-10T10:39:50.372Z,95854.09
2022-11-10T10:43:09.872Z,95852.47
2022-11-10T10:46:19.379Z,95861.22
2022-11-10T10:49:30.231Z,95856.75
2022-11-10T10:52:30.854Z,95844.09
2022-11-10T10:55:31.721Z,95857.53
2022-11-10T10:58:44.599Z,95861.03
2022-11-10T11:01:54.540Z,95858.38
2022-11-10T11:04:53.679Z,95861.22
2022-11-10T11:08:37.413Z,95869.19
2022-11-10T11:11:49.411Z,95866.13
2022-11-10T11:14:46.056Z,95864.50
2022-11-10T11:17:43.238Z,95860.56
2022-11-10T11:20:51.988Z,95858.75
2022-11-10T11:24:23.866Z,95857.13
2022-11-10T11:27:47.734Z,95850.03
2022-11-10T11:31:14.860Z,95860.56
2022-11-10T11:34:30.711Z,95856.28
2022-11-10T11:37:38.328Z,95851.81
2022-11-10T11:40:59.838Z,95857.72
2022-11-10T11:44:16.520Z,95859.56
2022-11-10T11:47:58.862Z,95869.38
2022-11-10T11:50:56.358Z,95867.28
2022-11-10T11:54:38.789Z,95868.94
2022-11-10T11:58:09.362Z,95862.81
2022-11-10T12:01:18.037Z,95857.50
2022-11-10T12:04:43.325Z,95868.13
2022-11-10T12:08:32.495Z,95871.81
2022-11-10T12:12:20.611Z,95873.66
2022-11-10T12:24:06.020Z,95870.19
2022-11-10T12:32:02.604Z,95885.53
2022-11-10T12:37:11.745Z,95887.38
2022-11-10T12:45:11.166Z,95887.00
2022-11-10T12:48:06.527Z,95884.94
2022-11-10T12:52:03.243Z,95887.59
2022-11-10T12:55:12.351Z,95882.88
2022-11-10T13:03:00.512Z,95891.72
2022-11-10T13:05:58.693Z,95894.31
2022-11-10T13:08:55.302Z,95904.50
2022-11-10T13:12:31.484Z,95894.94
2022-11-10T13:16:27.856Z,95904.50
2022-11-10T13:19:46.348Z,95918.84
2022-11-10T13:23:07.379Z,95908.78
2022-11-10T13:26:24.393Z,95909.41
2022-11-10T13:34:13.070Z,95902.06
2022-11-10T13:37:36.109Z,95906.34
2022-11-10T13:40:28.490Z,95911.25
2022-11-10T13:43:30.303Z,95917.13
2022-11-10T13:46:40.484Z,95924.31
2022-11-10T13:59:29.241Z,95938.47
2022-11-10T14:02:39.827Z,95943.56
2022-11-10T14:05:36.275Z,95933.31
2022-11-10T14:08:40.405Z,95932.28
2022-11-10T14:11:52.992Z,95938.41
2022-11-10T14:15:07.999Z,95945.34
2022-11-10T14:17:57.053Z,95942.09
2022-11-10T14:21:19.320Z,95944.09
2022-11-10T14:24:39.196Z,95949.41
2022-11-10T14:27:36.775Z,95945.97
2022-11-10T14:30:33.417Z,95950.03
2022-11-10T14:33:20.400Z,95949.00
2022-11-10T14:36:12.510Z,95950.63
2022-11-10T14:39:19.156Z,95946.34
2022-11-10T14:42:09.500Z,95954.09
2022-11-10T14:45:33.039Z,95956.97
2022-11-10T14:48:29.889Z,95955.94
2022-11-10T14:51:25.235Z,95974.53
2022-11-10T14:54:22.685Z,95981.47
2022-11-10T14:57:28.285Z,95977.22
2022-11-10T15:00:29.576Z,95988.44
2022-11-10T15:03:47.286Z,95992.09
2022-11-10T15:06:46.822Z,95987.84
2022-11-10T15:09:34.177Z,95997.41
2022-11-10T15:12:27.252Z,95995.63
2022-11-10T15:15:28.622Z,95998.28
2022-11-10T15:18:30.979Z,96000.31
2022-11-10T15:21:20.619Z,96008.28
2022-11-10T15:24:08.139Z,96003.78
2022-11-10T15:27:04.328Z,96013.38
2022-11-10T15:29:51.606Z,96014.44
2022-11-10T15:32:49.539Z,96032.84
2022-11-10T15:35:35.812Z,96028.75
2022-11-10T15:38:40.205Z,96032.84
2022-11-10T15:41:29.412Z,96040.81
2022-11-10T15:44:28.725Z,96043.66
2022-11-10T15:47:21.246Z,96041.81
2022-11-10T15:50:12.824Z,96038.34
2022-11-10T15:53:18.464Z,96055.91
2022-11-10T15:56:24.675Z,96059.63
2022-11-10T15:59:11.401Z,96065.13
2022-11-10T16:01:58.503Z,96064.94
2022-11-10T16:04:44.484Z,96069.63
2022-11-10T16:07:30.367Z,96073.94
2022-11-10T16:10:16.290Z,96062.69
2022-11-10T16:13:01.936Z,96067.22
2022-11-10T16:15:47.905Z,96077.38
2022-11-10T16:18:34.020Z,96083.53
2022-11-10T16:21:25.389Z,96090.69
2022-11-10T16:24:11.422Z,96090.91
2022-11-10T16:26:57.853Z,96099.50
2022-11-10T16:29:44.170Z,96088.88
2022-11-10T16:32:31.144Z,96108.50
2022-11-10T16:35:17.274Z,96115.63
2022-11-10T16:38:03.488Z,96117.09
2022-11-10T16:40:58.907Z,96118.28
2022-11-10T16:43:45.251Z,96119.31
2022-11-10T16:46:31.140Z,96120.38
2022-11-10T16:49:33.010Z,96134.47
2022-11-10T16:52:21.358Z,96138.97
2022-11-10T16:55:11.009Z,96137.94
2022-11-10T16:57:56.491Z,96144.28
2022-11-10T17:00:42.725Z,96153.06
2022-11-10T17:03:40.482Z,96159.63
2022-11-10T17:06:29.150Z,96155.56
2022-11-10T17:09:22.895Z,96169.25
2022-11-10T17:12:16.669Z,96165.97
2022-11-10T17:15:08.878Z,96160.66
2022-11-10T17:18:16.722Z,96173.34
2022-11-10T17:21:19.902Z,96165.16
2022-11-10T17:24:07.606Z,96164.78
2022-11-10T17:26:53.588Z,96164.97
2022-11-10T17:29:39.982Z,96172.31
2022-11-10T17:33:02.948Z,96171.13
2022-11-10T17:35:47.319Z,96185.81
2022-11-10T17:38:41.139Z,96180.13
2022-11-10T17:41:32.782Z,96195.44
2022-11-10T17:44:19.600Z,96195.66
2022-11-10T17:47:05.469Z,96200.97
2022-11-10T17:49:56.671Z,96198.31
2022-11-10T17:52:42.984Z,96208.94
2022-11-10T17:55:34.050Z,96199.13
2022-11-10T17:58:23.004Z,96198.94
2022-11-10T18:01:22.099Z,96202.78
2022-11-10T18:04:13.413Z,96206.09
2022-11-10T18:06:59.713Z,96221.84
2022-11-10T18:09:47.281Z,96227.97
2022-11-10T18:12:34.938Z,96232.03
2022-11-10T18:15:21.922Z,96247.38
2022-11-10T18:18:12.422Z,96240.22
2022-11-10T18:21:24.996Z,96238.81
2022-11-10T18:24:23.198Z,96244.72
2022-11-10T18:27:09.832Z,96232.88
2022-11-10T18:29:56.077Z,96244.94
2022-11-10T18:32:42.289Z,96243.09
2022-11-10T18:35:28.639Z,96246.78
2022-11-10T18:38:28.763Z,96243.91
2022-11-10T18:41:39.193Z,96234.91
2022-11-10T18:44:26.831Z,96242.50
2022-11-10T18:47:13.556Z,96238.81
2022-11-10T18:49:59.257Z,96239.84
2022-11-10T18:52:46.165Z,96245.94
2022-11-10T18:55:32.641Z,96245.94
2022-11-10T18:58:26.115Z,96245.16
2022-11-10T19:01:28.130Z,96243.28
2022-11-10T19:04:15.347Z,96248.03
2022-11-10T19:07:01.309Z,96255.56
2022-11-10T19:09:47.632Z,96253.13
2022-11-10T19:12:34.278Z,96250.06
2022-11-10T19:15:42.936Z,96244.13
2022-11-10T19:18:40.831Z,96252.28
2022-11-10T19:21:27.795Z,96255.16
2022-11-10T19:24:18.128Z,96253.53
2022-11-10T19:27:17.641Z,96251.09
2022-11-10T19:30:03.713Z,96259.25
2022-11-10T19:32:50.464Z,96259.25
2022-11-10T19:35:51.981Z,96255.78
2022-11-10T19:38:37.937Z,96262.72
2022-11-10T19:41:28.601Z,96266.81
2022-11-10T19:44:38.673Z,96266.81
2022-11-10T19:47:40.780Z,96265.78
2022-11-10T19:50:58.463Z,96256.97
2022-11-10T19:54:15.000Z,96266.81
2022-11-10T19:57:08.203Z,96275.41
2022-11-10T19:59:55.257Z,96282.13
2022-11-10T20:02:45.328Z,96287.00
2022-11-10T20:05:31.244Z,96282.13
2022-11-10T20:08:17.088Z,96288.44
2022-11-10T20:11:10.083Z,96291.31
2022-11-10T20:17:35.890Z,96296.66
2022-11-10T20:23:12.979Z,96297.84
2022-11-10T20:26:07.914Z,96296.22
2022-11-10T20:28:54.275Z,96310.69
2022-11-10T20:31:40.496Z,96308.66
2022-11-10T20:34:26.326Z,96308.25
2022-11-10T20:37:12.970Z,96303.50
2022-11-10T20:40:42.277Z,96302.72
2022-11-10T20:43:28.519Z,96306.78
2022-11-10T20:46:55.300Z,96307.59
2022-11-10T20:50:24.355Z,96300.22
2022-11-10T20:53:10.831Z,96284.31
2022-11-10T20:56:02.874Z,96299.59
2022-11-10T21:03:42.902Z,96298.19
2022-11-10T21:06:31.278Z,96313.13
2022-11-10T21:09:28.379Z,96317.41
2022-11-10T21:12:40.771Z,96321.28
2022-11-10T21:15:27.228Z,96328.22
2022-11-10T21:18:15.010Z,96319.22
2022-11-10T21:21:35.109Z,96312.84
2022-11-10T21:24:20.892Z,96305.31
2022-11-10T21:27:07.029Z,96312.84
2022-11-10T21:29:53.074Z,96324.72
2022-11-10T21:32:39.108Z,96328.19
2022-11-10T21:35:38.186Z,96326.16
2022-11-10T21:38:26.085Z,96333.31
2022-11-10T21:41:12.532Z,96335.97
2022-11-10T21:44:02.404Z,96341.69
2022-11-10T21:46:53.745Z,96341.88
2022-11-10T21:50:12.172Z,96342.72
2022-11-10T21:52:58.230Z,96350.47
2022-11-10T21:59:40.306Z,96338.25
2022-11-10T22:02:31.477Z,96349.66
2022-11-10T22:05:17.093Z,96342.72
2022-11-10T22:08:05.319Z,96343.91
2022-11-10T22:11:10.433Z,96345.56
2022-11-10T22:14:19.797Z,96339.84
2022-11-10T22:17:34.524Z,96362.53
2022-11-10T22:20:20.791Z,96360.31
2022-11-10T22:23:11.553Z,96365.19
2022-11-10T22:25:58.182Z,96364.41
2022-11-10T22:28:47.199Z,96371.13
2022-11-10T22:31:38.573Z,96370.91
2022-11-10T22:34:27.330Z,96382.34
2022-11-10T22:37:13.279Z,96373.34
2022-11-10T22:40:19.490Z,96380.31
2022-11-10T22:43:24.787Z,96384.00
2022-11-10T22:46:14.229Z,96370.50
2022-11-10T22:49:02.840Z,96373.56
2022-11-10T22:51:58.508Z,96380.94
2022-11-10T22:54:44.870Z,96370.50
2022-11-10T22:57:30.416Z,96369.44
2022-11-10T23:00:17.006Z,96365.53
2022-11-10T23:03:02.784Z,96360.22
2022-11-10T23:05:56.038Z,96355.97
2022-11-10T23:08:43.633Z,96357.56
2022-11-10T23:11:32.118Z,96347.75
2022-11-10T23:14:17.850Z,96352.47
2022-11-10T23:17:03.971Z,96349.56
2022-11-10T23:19:51.270Z,96345.31
2022-11-10T23:22:37.641Z,96352.25
2022-11-10T23:25:23.996Z,96350.41
2022-11-10T23:28:10.161Z,96340.19
2022-11-10T23:31:05.838Z,96352.47
2022-11-10T23:33:55.304Z,96346.13
2022-11-10T23:36:42.221Z,96348.59
2022-11-10T23:39:28.284Z,96347.13
2022-11-10T23:42:14.360Z,96346.91
2022-11-10T23:45:01.113Z,96335.31
2022-11-10T23:47:47.969Z,96341.81
2022-11-10T23:50:34.121Z,96335.31
2022-11-10T23:53:20.733Z,96347.13
2022-11-10T23:56:12.345Z,96341.81
2022-11-10T23:58:58.498Z,96337.53
